createdAt,value
2018-06-03T00:00:00.010Z,1004.79
2018-06-03T00:01:00.040Z,1004.78
2018-06-03T00:02:00.059Z,1004.78
2018-06-03T00:03:00.072Z,1004.79
2018-06-03T00:04:00.093Z,1004.77
2018-06-03T00:05:00.111Z,1004.81
2018-06-03T00:06:00.132Z,1004.80
2018-06-03T00:07:00.165Z,1004.80
2018-06-03T00:08:00.179Z,1004.78
2018-06-03T00:09:00.192Z,1004.82
2018-06-03T00:10:00.220Z,1004.80
2018-06-03T00:11:00.249Z,1004.80
2018-06-03T00:12:00.265Z,1004.86
2018-06-03T00:13:00.280Z,1004.86
2018-06-03T00:14:00.299Z,1004.84
2018-06-03T00:15:00.327Z,1004.84
2018-06-03T00:16:00.340Z,1004.85
2018-06-03T00:17:00.364Z,1004.82
2018-06-03T00:18:00.386Z,1004.80
2018-06-03T00:19:00.404Z,1004.80
2018-06-03T00:20:00.437Z,1004.84
2018-06-03T00:21:00.439Z,1004.83
2018-06-03T00:22:00.471Z,1004.82
2018-06-03T00:23:00.485Z,1004.82
2018-06-03T00:24:00.506Z,1004.83
2018-06-03T00:25:00.527Z,1004.80
2018-06-03T00:26:00.545Z,1004.80
2018-06-03T00:27:00.571Z,1004.83
2018-06-03T00:28:00.588Z,1004.83
2018-06-03T00:29:00.603Z,1004.82
2018-06-03T00:30:00.629Z,1004.82
2018-06-03T00:31:00.655Z,1004.81
2018-06-03T00:32:00.669Z,1004.77
2018-06-03T00:33:00.691Z,1004.80
2018-06-03T00:34:00.708Z,1004.82
2018-06-03T00:35:00.728Z,1004.83
2018-06-03T00:36:00.760Z,1004.82
2018-06-03T00:37:00.775Z,1004.79
2018-06-03T00:38:00.785Z,1004.75
2018-06-03T00:39:00.824Z,1004.80
2018-06-03T00:40:00.845Z,1004.76
2018-06-03T00:41:00.861Z,1004.77
2018-06-03T00:42:00.869Z,1004.79
2018-06-03T00:43:00.892Z,1004.75
2018-06-03T00:44:00.938Z,1004.78
2018-06-03T00:45:00.934Z,1004.77
2018-06-03T00:46:00.965Z,1004.75
2018-06-03T00:47:00.987Z,1004.78
2018-06-03T00:48:01.004Z,1004.78
2018-06-03T00:49:01.012Z,1004.77
2018-06-03T00:50:01.036Z,1004.78
2018-06-03T00:51:01.057Z,1004.80
2018-06-03T00:52:01.076Z,1004.80
2018-06-03T00:53:01.096Z,1004.79
2018-06-03T00:54:01.113Z,1004.82
2018-06-03T00:55:01.134Z,1004.81
2018-06-03T00:56:01.176Z,1004.81
2018-06-03T00:57:01.182Z,1004.81
2018-06-03T00:58:01.201Z,1004.83
2018-06-03T00:59:01.248Z,1004.82
2018-06-03T01:00:01.240Z,1004.83
2018-06-03T01:01:01.257Z,1004.81
2018-06-03T01:02:01.286Z,1004.80
2018-06-03T01:03:01.309Z,1004.80
2018-06-03T01:04:01.326Z,1004.81
2018-06-03T01:05:01.347Z,1004.78
2018-06-03T01:06:01.365Z,1004.81
2018-06-03T01:07:01.383Z,1004.78
2018-06-03T01:08:01.408Z,1004.76
2018-06-03T01:09:01.430Z,1004.75
2018-06-03T01:10:01.445Z,1004.71
2018-06-03T01:11:01.468Z,1004.68
2018-06-03T01:12:01.493Z,1004.65
2018-06-03T01:13:01.506Z,1004.66
2018-06-03T01:14:01.529Z,1004.64
2018-06-03T01:15:01.555Z,1004.61
2018-06-03T01:16:01.590Z,1004.62
2018-06-03T01:17:01.586Z,1004.64
2018-06-03T01:18:01.616Z,1004.60
2018-06-03T01:19:01.634Z,1004.61
2018-06-03T01:20:01.661Z,1004.60
2018-06-03T01:21:01.678Z,1004.58
2018-06-03T01:22:01.697Z,1004.58
2018-06-03T01:23:01.725Z,1004.58
2018-06-03T01:24:01.735Z,1004.59
2018-06-03T01:25:01.761Z,1004.61
2018-06-03T01:26:01.770Z,1004.60
2018-06-03T01:27:01.809Z,1004.59
2018-06-03T01:28:01.816Z,1004.61
2018-06-03T01:29:01.839Z,1004.59
2018-06-03T01:30:01.861Z,1004.58
2018-06-03T01:31:01.874Z,1004.59
2018-06-03T01:32:01.901Z,1004.57
2018-06-03T01:33:01.925Z,1004.57
2018-06-03T01:34:01.941Z,1004.57
2018-06-03T01:35:01.975Z,1004.54
2018-06-03T01:36:01.989Z,1004.57
2018-06-03T01:37:01.999Z,1004.53
2018-06-03T01:38:02.024Z,1004.53
2018-06-03T01:39:02.043Z,1004.50
2018-06-03T01:40:02.065Z,1004.52
2018-06-03T01:41:02.092Z,1004.50
2018-06-03T01:42:02.110Z,1004.50
2018-06-03T01:43:02.148Z,1004.50
2018-06-03T01:44:02.149Z,1004.51
2018-06-03T01:45:02.252Z,1004.53
2018-06-03T01:46:02.187Z,1004.50
2018-06-03T01:47:02.216Z,1004.52
2018-06-03T01:48:02.236Z,1004.52
2018-06-03T01:49:02.248Z,1004.52
2018-06-03T01:50:02.275Z,1004.53
2018-06-03T01:51:02.295Z,1004.52
2018-06-03T01:52:02.317Z,1004.48
2018-06-03T01:53:02.344Z,1004.51
2018-06-03T01:54:02.350Z,1004.48
2018-06-03T01:55:02.377Z,1004.47
2018-06-03T01:56:02.399Z,1004.48
2018-06-03T01:57:02.416Z,1004.45
2018-06-03T01:58:02.453Z,1004.46
2018-06-03T01:59:02.455Z,1004.43
2018-06-03T02:00:02.482Z,1004.48
2018-06-03T02:01:02.498Z,1004.45
2018-06-03T02:02:02.519Z,1004.47
2018-06-03T02:03:02.539Z,1004.44
2018-06-03T02:04:02.563Z,1004.46
2018-06-03T02:05:02.586Z,1004.48
2018-06-03T02:06:02.600Z,1004.49
2018-06-03T02:07:02.627Z,1004.49
2018-06-03T02:08:02.662Z,1004.48
2018-06-03T02:09:02.674Z,1004.44
2018-06-03T02:10:02.685Z,1004.41
2018-06-03T02:11:02.715Z,1004.45
2018-06-03T02:12:02.739Z,1004.47
2018-06-03T02:13:02.749Z,1004.44
2018-06-03T02:14:02.769Z,1004.42
2018-06-03T02:15:02.797Z,1004.44
2018-06-03T02:16:02.810Z,1004.42
2018-06-03T02:17:02.823Z,1004.46
2018-06-03T02:18:02.857Z,1004.46
2018-06-03T02:19:02.871Z,1004.46
2018-06-03T02:20:02.889Z,1004.44
2018-06-03T02:21:02.915Z,1004.40
2018-06-03T02:22:02.933Z,1004.43
2018-06-03T02:23:02.951Z,1004.42
2018-06-03T02:24:02.981Z,1004.41
2018-06-03T02:25:02.996Z,1004.40
2018-06-03T02:26:03.012Z,1004.44
2018-06-03T02:27:03.069Z,1004.39
2018-06-03T02:28:03.089Z,1004.42
2018-06-03T02:29:03.084Z,1004.44
2018-06-03T02:30:03.110Z,1004.40
2018-06-03T02:31:03.115Z,1004.45
2018-06-03T02:32:03.141Z,1004.41
2018-06-03T02:33:03.168Z,1004.40
2018-06-03T02:34:03.177Z,1004.40
2018-06-03T02:35:03.221Z,1004.39
2018-06-03T02:36:03.230Z,1004.37
2018-06-03T02:37:03.247Z,1004.39
2018-06-03T02:38:03.260Z,1004.35
2018-06-03T02:39:03.289Z,1004.37
2018-06-03T02:40:03.309Z,1004.37
2018-06-03T02:41:03.323Z,1004.38
2018-06-03T02:42:03.346Z,1004.34
2018-06-03T02:43:03.391Z,1004.36
2018-06-03T02:44:03.393Z,1004.33
2018-06-03T02:45:03.405Z,1004.29
2018-06-03T02:46:03.436Z,1004.31
2018-06-03T02:47:03.448Z,1004.28
2018-06-03T02:48:03.464Z,1004.29
2018-06-03T02:49:03.492Z,1004.29
2018-06-03T02:50:03.511Z,1004.32
2018-06-03T02:51:03.526Z,1004.30
2018-06-03T02:52:03.560Z,1004.31
2018-06-03T02:53:03.566Z,1004.32
2018-06-03T02:54:03.594Z,1004.31
2018-06-03T02:55:03.628Z,1004.34
2018-06-03T02:56:03.636Z,1004.33
2018-06-03T02:57:03.704Z,1004.33
2018-06-03T02:58:03.685Z,1004.34
2018-06-03T02:59:03.699Z,1004.38
2018-06-03T03:00:03.715Z,1004.35
2018-06-03T03:01:03.733Z,1004.35
2018-06-03T03:02:03.763Z,1004.34
2018-06-03T03:03:03.775Z,1004.38
2018-06-03T03:04:03.796Z,1004.37
2018-06-03T03:05:03.829Z,1004.38
2018-06-03T03:06:03.848Z,1004.34
2018-06-03T03:07:03.866Z,1004.39
2018-06-03T03:08:03.887Z,1004.37
2018-06-03T03:09:03.900Z,1004.37
2018-06-03T03:10:03.923Z,1004.36
2018-06-03T03:11:03.943Z,1004.39
2018-06-03T03:12:03.972Z,1004.44
2018-06-03T03:13:03.990Z,1004.45
2018-06-03T03:14:04.005Z,1004.45
2018-06-03T03:15:04.032Z,1004.48
2018-06-03T03:16:04.067Z,1004.50
2018-06-03T03:17:04.073Z,1004.50
2018-06-03T03:18:04.098Z,1004.51
2018-06-03T03:19:04.115Z,1004.50
2018-06-03T03:20:04.144Z,1004.48
2018-06-03T03:21:04.167Z,1004.50
2018-06-03T03:22:04.187Z,1004.51
2018-06-03T03:23:04.199Z,1004.51
2018-06-03T03:24:04.213Z,1004.52
2018-06-03T03:25:04.234Z,1004.56
2018-06-03T03:26:04.260Z,1004.54
2018-06-03T03:27:04.281Z,1004.54
2018-06-03T03:28:04.298Z,1004.57
2018-06-03T03:29:04.318Z,1004.57
2018-06-03T03:30:04.339Z,1004.55
2018-06-03T03:31:04.363Z,1004.59
2018-06-03T03:32:04.380Z,1004.57
2018-06-03T03:33:04.401Z,1004.57
2018-06-03T03:34:04.425Z,1004.58
2018-06-03T03:35:04.446Z,1004.59
2018-06-03T03:36:04.470Z,1004.62
2018-06-03T03:37:04.480Z,1004.59
2018-06-03T03:38:04.514Z,1004.58
2018-06-03T03:39:04.534Z,1004.61
2018-06-03T03:40:04.546Z,1004.58
2018-06-03T03:41:04.569Z,1004.57
2018-06-03T03:42:04.598Z,1004.54
2018-06-03T03:43:04.611Z,1004.53
2018-06-03T03:44:04.630Z,1004.50
2018-06-03T03:45:04.652Z,1004.52
2018-06-03T03:46:04.677Z,1004.49
2018-06-03T03:47:04.699Z,1004.49
2018-06-03T03:48:04.717Z,1004.54
2018-06-03T03:49:04.735Z,1004.51
2018-06-03T03:50:04.756Z,1004.52
2018-06-03T03:51:04.776Z,1004.53
2018-06-03T03:52:04.809Z,1004.54
2018-06-03T03:53:04.821Z,1004.53
2018-06-03T03:54:04.840Z,1004.57
2018-06-03T03:55:04.863Z,1004.53
2018-06-03T03:56:04.883Z,1004.54
2018-06-03T03:57:04.903Z,1004.56
2018-06-03T03:58:04.926Z,1004.56
2018-06-03T03:59:04.943Z,1004.56
2018-06-03T04:00:04.967Z,1004.57
2018-06-03T04:01:04.997Z,1004.57
2018-06-03T04:02:05.010Z,1004.57
2018-06-03T04:03:05.039Z,1004.63
2018-06-03T04:04:05.050Z,1004.59
2018-06-03T04:05:05.077Z,1004.58
2018-06-03T04:06:05.090Z,1004.60
2018-06-03T04:07:05.115Z,1004.59
2018-06-03T04:08:05.146Z,1004.60
2018-06-03T04:09:05.167Z,1004.59
2018-06-03T04:10:05.178Z,1004.54
2018-06-03T04:11:05.200Z,1004.53
2018-06-03T04:12:05.218Z,1004.54
2018-06-03T04:13:05.264Z,1004.55
2018-06-03T04:14:05.265Z,1004.57
2018-06-03T04:15:05.292Z,1004.57
2018-06-03T04:16:05.308Z,1004.62
2018-06-03T04:17:05.332Z,1004.56
2018-06-03T04:18:05.348Z,1004.59
2018-06-03T04:19:05.372Z,1004.61
2018-06-03T04:20:05.397Z,1004.59
2018-06-03T04:21:05.417Z,1004.59
2018-06-03T04:22:05.435Z,1004.58
2018-06-03T04:23:05.451Z,1004.60
2018-06-03T04:24:05.480Z,1004.60
2018-06-03T04:25:05.500Z,1004.61
2018-06-03T04:26:05.521Z,1004.63
2018-06-03T04:27:05.536Z,1004.67
2018-06-03T04:28:05.568Z,1004.68
2018-06-03T04:29:05.603Z,1004.72
2018-06-03T04:30:05.630Z,1004.70
2018-06-03T04:31:05.626Z,1004.77
2018-06-03T04:32:05.650Z,1004.75
2018-06-03T04:33:05.663Z,1004.75
2018-06-03T04:34:05.688Z,1004.76
2018-06-03T04:35:05.709Z,1004.74
2018-06-03T04:36:05.729Z,1004.78
2018-06-03T04:37:05.752Z,1004.73
2018-06-03T04:38:05.773Z,1004.74
2018-06-03T04:39:05.804Z,1004.76
2018-06-03T04:40:05.824Z,1004.71
2018-06-03T04:41:05.850Z,1004.75
2018-06-03T04:42:05.871Z,1004.77
2018-06-03T04:43:05.886Z,1004.73
2018-06-03T04:44:05.912Z,1004.73
2018-06-03T04:45:05.928Z,1004.73
2018-06-03T04:46:05.952Z,1004.73
2018-06-03T04:47:05.966Z,1004.73
2018-06-03T04:48:05.986Z,1004.73
2018-06-03T04:49:06.011Z,1004.71
2018-06-03T04:50:06.034Z,1004.77
2018-06-03T04:51:06.055Z,1004.72
2018-06-03T04:52:06.075Z,1004.75
2018-06-03T04:53:06.128Z,1004.73
2018-06-03T04:54:06.119Z,1004.77
2018-06-03T04:55:06.188Z,1004.78
2018-06-03T04:56:06.172Z,1004.83
2018-06-03T04:57:06.181Z,1004.82
2018-06-03T04:58:06.219Z,1004.82
2018-06-03T04:59:06.233Z,1004.82
2018-06-03T05:00:06.277Z,1004.84
2018-06-03T05:01:06.280Z,1004.81
2018-06-03T05:02:06.289Z,1004.84
2018-06-03T05:03:06.311Z,1004.82
2018-06-03T05:04:06.338Z,1004.84
2018-06-03T05:05:06.355Z,1004.85
2018-06-03T05:06:06.383Z,1004.89
2018-06-03T05:07:06.422Z,1004.89
2018-06-03T05:08:06.447Z,1004.88
2018-06-03T05:09:06.444Z,1004.89
2018-06-03T05:10:06.477Z,1004.92
2018-06-03T05:11:06.501Z,1004.91
2018-06-03T05:12:06.534Z,1004.90
2018-06-03T05:13:06.631Z,1004.91
2018-06-03T05:14:06.553Z,1004.93
2018-06-03T05:15:06.585Z,1004.93
2018-06-03T05:16:06.595Z,1004.93
2018-06-03T05:17:06.616Z,1004.95
2018-06-03T05:18:06.636Z,1004.97
2018-06-03T05:19:06.662Z,1004.96
2018-06-03T05:20:06.682Z,1004.95
2018-06-03T05:21:06.701Z,1004.94
2018-06-03T05:22:06.726Z,1004.94
2018-06-03T05:23:06.749Z,1004.93
2018-06-03T05:24:06.783Z,1004.95
2018-06-03T05:25:06.792Z,1004.94
2018-06-03T05:26:06.814Z,1004.92
2018-06-03T05:27:06.836Z,1004.92
2018-06-03T05:28:06.858Z,1004.94
2018-06-03T05:29:06.875Z,1004.91
2018-06-03T05:30:06.924Z,1004.98
2018-06-03T05:31:06.918Z,1004.96
2018-06-03T05:32:06.951Z,1004.97
2018-06-03T05:33:06.958Z,1004.97
2018-06-03T05:34:06.989Z,1004.95
2018-06-03T05:35:07.004Z,1004.93
2018-06-03T05:36:07.033Z,1004.96
2018-06-03T05:37:07.053Z,1004.94
2018-06-03T05:38:07.071Z,1004.96
2018-06-03T05:39:07.103Z,1004.95
2018-06-03T05:40:07.116Z,1004.97
2018-06-03T05:41:07.137Z,1005.01
2018-06-03T05:42:07.157Z,1005.00
2018-06-03T05:43:07.177Z,1005.01
2018-06-03T05:44:07.217Z,1004.99
2018-06-03T05:45:07.230Z,1005.00
2018-06-03T05:46:07.249Z,1005.00
2018-06-03T05:47:07.263Z,1005.00
2018-06-03T05:48:07.299Z,1005.03
2018-06-03T05:49:07.307Z,1005.06
2018-06-03T05:50:07.332Z,1005.08
2018-06-03T05:51:07.356Z,1005.07
2018-06-03T05:52:07.379Z,1005.07
2018-06-03T05:53:07.391Z,1005.13
2018-06-03T05:54:07.422Z,1005.16
2018-06-03T05:55:07.446Z,1005.15
2018-06-03T05:56:07.466Z,1005.15
2018-06-03T05:57:07.487Z,1005.15
2018-06-03T05:58:07.525Z,1005.15
2018-06-03T05:59:07.533Z,1005.20
2018-06-03T06:00:07.559Z,1005.22
2018-06-03T06:01:07.576Z,1005.25
2018-06-03T06:02:07.593Z,1005.26
2018-06-03T06:03:07.618Z,1005.26
2018-06-03T06:04:07.642Z,1005.23
2018-06-03T06:05:07.670Z,1005.25
2018-06-03T06:06:07.690Z,1005.27
2018-06-03T06:07:07.719Z,1005.27
2018-06-03T06:08:07.743Z,1005.29
2018-06-03T06:09:07.780Z,1005.28
2018-06-03T06:10:07.797Z,1005.27
2018-06-03T06:11:07.792Z,1005.33
2018-06-03T06:12:07.829Z,1005.30
2018-06-03T06:13:07.839Z,1005.29
2018-06-03T06:14:07.877Z,1005.29
2018-06-03T06:15:07.894Z,1005.30
2018-06-03T06:16:07.910Z,1005.29
2018-06-03T06:17:07.932Z,1005.26
2018-06-03T06:18:07.965Z,1005.29
2018-06-03T06:19:07.983Z,1005.30
2018-06-03T06:20:08.044Z,1005.30
2018-06-03T06:21:08.026Z,1005.30
2018-06-03T06:22:08.047Z,1005.30
2018-06-03T06:23:08.064Z,1005.29
2018-06-03T06:24:08.102Z,1005.29
2018-06-03T06:25:08.124Z,1005.27
2018-06-03T06:26:08.134Z,1005.28
2018-06-03T06:27:08.155Z,1005.33
2018-06-03T06:28:08.178Z,1005.32
2018-06-03T06:29:08.205Z,1005.34
2018-06-03T06:30:08.215Z,1005.33
2018-06-03T06:31:08.246Z,1005.34
2018-06-03T06:32:08.265Z,1005.31
2018-06-03T06:33:08.294Z,1005.30
2018-06-03T06:34:08.325Z,1005.38
2018-06-03T06:35:08.339Z,1005.36
2018-06-03T06:36:08.368Z,1005.43
2018-06-03T06:37:08.379Z,1005.45
2018-06-03T06:38:08.399Z,1005.50
2018-06-03T06:39:08.432Z,1005.58
2018-06-03T06:40:08.449Z,1005.72
2018-06-03T06:41:08.484Z,1005.81
2018-06-03T06:42:08.497Z,1005.87
2018-06-03T06:43:08.517Z,1005.90
2018-06-03T06:44:08.552Z,1005.90
2018-06-03T06:45:08.562Z,1005.89
2018-06-03T06:46:08.619Z,1005.91
2018-06-03T06:47:08.616Z,1005.91
2018-06-03T06:48:08.647Z,1005.94
2018-06-03T06:49:08.663Z,1005.91
2018-06-03T06:50:08.728Z,1005.97
2018-06-03T06:51:08.703Z,1006.13
2018-06-03T06:52:08.731Z,1005.97
2018-06-03T06:53:08.749Z,1005.94
2018-06-03T06:54:08.776Z,1005.91
2018-06-03T06:55:08.800Z,1005.93
2018-06-03T06:56:08.819Z,1005.94
2018-06-03T06:57:08.848Z,1006.04
2018-06-03T06:58:08.868Z,1005.96
2018-06-03T06:59:08.892Z,1006.00
2018-06-03T07:00:08.954Z,1005.98
2018-06-03T07:01:08.937Z,1006.02
2018-06-03T07:02:08.974Z,1005.99
2018-06-03T07:03:08.991Z,1005.95
2018-06-03T07:04:09.011Z,1005.93
2018-06-03T07:05:09.037Z,1005.95
2018-06-03T07:06:09.071Z,1005.94
2018-06-03T07:07:09.087Z,1005.93
2018-06-03T07:08:09.104Z,1005.99
2018-06-03T07:09:09.126Z,1006.01
2018-06-03T07:10:09.176Z,1006.04
2018-06-03T07:11:09.189Z,1006.16
2018-06-03T07:12:09.205Z,1006.16
2018-06-03T07:13:09.243Z,1006.21
2018-06-03T07:14:09.251Z,1006.27
2018-06-03T07:15:09.290Z,1006.32
2018-06-03T07:16:09.302Z,1006.25
2018-06-03T07:17:10.294Z,1006.18
2018-06-03T07:18:09.390Z,1006.12
2018-06-03T07:19:09.424Z,1006.10
2018-06-03T07:20:09.799Z,1006.09
2018-06-03T07:21:09.424Z,1006.12
2018-06-03T07:22:09.445Z,1006.23
2018-06-03T07:23:09.465Z,1006.19
2018-06-03T07:24:09.516Z,1006.15
2018-06-03T07:25:09.518Z,1006.11
2018-06-03T07:26:09.553Z,1006.06
2018-06-03T07:27:09.568Z,1006.08
2018-06-03T07:28:09.594Z,1006.05
2018-06-03T07:29:09.641Z,1006.00
2018-06-03T07:30:09.663Z,1006.01
2018-06-03T07:31:09.671Z,1005.99
2018-06-03T07:32:09.730Z,1006.05
2018-06-03T07:33:09.728Z,1006.05
2018-06-03T07:34:09.741Z,1006.02
2018-06-03T07:35:09.762Z,1005.99
2018-06-03T07:36:09.784Z,1005.99
2018-06-03T07:37:09.817Z,1006.04
2018-06-03T07:38:09.841Z,1006.05
2018-06-03T07:39:09.887Z,1006.04
2018-06-03T07:40:09.882Z,1006.06
2018-06-03T07:41:09.911Z,1006.08
2018-06-03T07:42:09.936Z,1006.09
2018-06-03T07:43:09.956Z,1006.13
2018-06-03T07:44:09.979Z,1006.17
2018-06-03T07:45:10.056Z,1006.25
2018-06-03T07:46:10.034Z,1006.29
2018-06-03T07:47:10.051Z,1006.24
2018-06-03T07:48:10.077Z,1006.21
2018-06-03T07:49:10.109Z,1006.23
2018-06-03T07:50:10.124Z,1006.20
2018-06-03T07:51:10.154Z,1006.23
2018-06-03T07:52:10.177Z,1006.30
2018-06-03T07:53:10.202Z,1006.30
2018-06-03T07:54:10.226Z,1006.27
2018-06-03T07:55:10.251Z,1006.53
2018-06-03T07:56:10.274Z,1006.73
2018-06-03T07:57:10.299Z,1006.68
2018-06-03T07:58:10.331Z,1006.82
2018-06-03T07:59:10.364Z,1010.33
2018-06-03T08:00:10.367Z,1006.65
2018-06-03T08:01:10.443Z,1006.38
2018-06-03T08:02:10.424Z,1006.36
2018-06-03T08:03:10.444Z,1006.22
2018-06-03T08:04:10.468Z,1006.15
2018-06-03T08:05:10.499Z,1006.04
2018-06-03T08:06:10.518Z,1005.98
2018-06-03T08:07:10.547Z,1005.87
2018-06-03T08:08:10.564Z,1005.83
2018-06-03T08:09:10.601Z,1005.82
2018-06-03T08:10:10.634Z,1005.79
2018-06-03T08:11:10.653Z,1005.78
2018-06-03T08:12:10.674Z,1005.71
2018-06-03T08:13:10.688Z,1005.70
2018-06-03T08:14:10.722Z,1005.66
2018-06-03T08:15:10.746Z,1005.66
2018-06-03T08:16:10.774Z,1005.66
2018-06-03T08:17:10.789Z,1005.61
2018-06-03T08:18:10.808Z,1005.62
2018-06-03T08:19:10.833Z,1005.62
2018-06-03T08:20:10.866Z,1005.62
2018-06-03T08:21:10.882Z,1005.60
2018-06-03T08:22:10.914Z,1005.58
2018-06-03T08:23:10.936Z,1005.55
2018-06-03T08:24:10.965Z,1005.58
2018-06-03T08:25:10.990Z,1005.55
2018-06-03T08:26:11.072Z,1005.55
2018-06-03T08:27:11.071Z,1005.55
2018-06-03T08:28:11.058Z,1005.55
2018-06-03T08:29:11.069Z,1005.56
2018-06-03T08:30:11.101Z,1005.53
2018-06-03T08:31:11.133Z,1005.57
2018-06-03T08:32:11.143Z,1005.57
2018-06-03T08:33:11.170Z,1005.56
2018-06-03T08:34:11.194Z,1005.56
2018-06-03T08:35:11.213Z,1005.53
2018-06-03T08:36:11.260Z,1005.55
2018-06-03T08:37:11.287Z,1005.53
2018-06-03T08:38:11.288Z,1005.53
2018-06-03T08:39:11.328Z,1005.54
2018-06-03T08:40:11.329Z,1005.53
2018-06-03T08:41:11.357Z,1005.55
2018-06-03T08:42:11.382Z,1005.56
2018-06-03T08:43:11.416Z,1005.53
2018-06-03T08:44:11.431Z,1005.57
2018-06-03T08:45:11.451Z,1005.56
2018-06-03T08:46:11.478Z,1005.58
2018-06-03T08:47:11.505Z,1005.57
2018-06-03T08:48:11.531Z,1005.60
2018-06-03T08:49:11.556Z,1005.63
2018-06-03T08:50:11.580Z,1005.57
2018-06-03T08:51:11.598Z,1005.62
2018-06-03T08:52:11.696Z,1005.59
2018-06-03T08:53:11.645Z,1005.59
2018-06-03T08:54:11.669Z,1005.61
2018-06-03T08:55:11.695Z,1005.58
2018-06-03T08:56:11.721Z,1005.60
2018-06-03T08:57:11.745Z,1005.63
2018-06-03T08:58:11.790Z,1005.57
2018-06-03T08:59:11.795Z,1005.60
2018-06-03T09:00:11.817Z,1005.62
2018-06-03T09:01:11.840Z,1005.61
2018-06-03T09:02:11.861Z,1005.62
2018-06-03T09:03:11.882Z,1005.63
2018-06-03T09:04:11.931Z,1005.65
2018-06-03T09:05:11.947Z,1005.64
2018-06-03T09:06:11.953Z,1005.62
2018-06-03T09:07:11.996Z,1005.61
2018-06-03T09:08:12.012Z,1005.62
2018-06-03T09:09:12.037Z,1005.65
2018-06-03T09:10:12.058Z,1005.66
2018-06-03T09:11:12.077Z,1005.66
2018-06-03T09:12:12.096Z,1005.67
2018-06-03T09:13:12.143Z,1005.69
2018-06-03T09:14:12.147Z,1005.67
2018-06-03T09:15:12.179Z,1005.70
2018-06-03T09:16:12.203Z,1005.69
2018-06-03T09:17:12.231Z,1005.79
2018-06-03T09:18:12.253Z,1005.78
2018-06-03T09:19:12.270Z,1005.74
2018-06-03T09:20:12.301Z,1005.73
2018-06-03T09:21:12.318Z,1005.75
2018-06-03T09:22:12.345Z,1005.75
2018-06-03T09:23:12.366Z,1005.73
2018-06-03T09:24:12.395Z,1005.76
2018-06-03T09:25:12.467Z,1005.75
2018-06-03T09:26:12.434Z,1005.79
2018-06-03T09:27:12.456Z,1005.81
2018-06-03T09:28:12.491Z,1005.79
2018-06-03T09:29:12.508Z,1005.78
2018-06-03T09:30:12.532Z,1005.74
2018-06-03T09:31:12.557Z,1005.76
2018-06-03T09:32:12.585Z,1005.74
2018-06-03T09:33:12.595Z,1005.76
2018-06-03T09:34:12.636Z,1005.70
2018-06-03T09:35:12.653Z,1005.73
2018-06-03T09:36:12.670Z,1005.72
2018-06-03T09:37:12.693Z,1005.66
2018-06-03T09:38:12.720Z,1005.65
2018-06-03T09:39:12.744Z,1005.63
2018-06-03T09:40:12.772Z,1005.62
2018-06-03T09:41:12.805Z,1005.59
2018-06-03T09:42:12.813Z,1005.62
2018-06-03T09:43:12.835Z,1005.66
2018-06-03T09:44:12.868Z,1005.68
2018-06-03T09:45:12.893Z,1005.63
2018-06-03T09:46:12.926Z,1005.65
2018-06-03T09:47:12.951Z,1005.70
2018-06-03T09:48:12.977Z,1005.71
2018-06-03T09:49:13.003Z,1005.72
2018-06-03T09:50:13.007Z,1005.75
2018-06-03T09:51:13.028Z,1005.68
2018-06-03T09:52:13.068Z,1005.70
2018-06-03T09:53:13.192Z,1005.68
2018-06-03T09:54:13.103Z,1005.69
2018-06-03T09:55:13.146Z,1005.70
2018-06-03T09:56:13.154Z,1005.68
2018-06-03T09:57:13.168Z,1005.70
2018-06-03T09:58:13.196Z,1005.71
2018-06-03T09:59:13.243Z,1005.70
2018-06-03T10:00:13.244Z,1005.65
2018-06-03T10:01:13.267Z,1005.70
2018-06-03T10:02:13.296Z,1005.66
2018-06-03T10:03:13.318Z,1005.65
2018-06-03T10:04:13.338Z,1005.64
2018-06-03T10:05:13.371Z,1005.66
2018-06-03T10:06:13.407Z,1005.70
2018-06-03T10:07:13.415Z,1005.69
2018-06-03T10:08:13.438Z,1005.67
2018-06-03T10:09:13.469Z,1005.68
2018-06-03T10:10:13.545Z,1005.70
2018-06-03T10:11:13.532Z,1005.70
2018-06-03T10:12:13.557Z,1005.71
2018-06-03T10:13:13.580Z,1005.75
2018-06-03T10:14:13.579Z,1005.74
2018-06-03T10:15:13.612Z,1005.77
2018-06-03T10:16:13.673Z,1005.78
2018-06-03T10:17:13.654Z,1005.77
2018-06-03T10:18:13.684Z,1005.80
2018-06-03T10:19:13.710Z,1005.78
2018-06-03T10:20:13.729Z,1005.80
2018-06-03T10:21:13.789Z,1005.81
2018-06-03T10:22:13.796Z,1005.81
2018-06-03T10:23:13.807Z,1005.82
2018-06-03T10:24:13.834Z,1005.81
2018-06-03T10:25:13.874Z,1005.84
2018-06-03T10:26:13.901Z,1005.87
2018-06-03T10:27:13.908Z,1005.89
2018-06-03T10:28:13.936Z,1005.92
2018-06-03T10:29:13.963Z,1005.92
2018-06-03T10:30:14.009Z,1005.87
2018-06-03T10:31:14.024Z,1005.83
2018-06-03T10:32:14.037Z,1005.80
2018-06-03T10:33:14.067Z,1005.77
2018-06-03T10:34:14.103Z,1005.79
2018-06-03T10:35:14.113Z,1005.84
2018-06-03T10:36:14.136Z,1005.85
2018-06-03T10:37:14.167Z,1005.89
2018-06-03T10:38:14.207Z,1005.89
2018-06-03T10:39:14.224Z,1005.89
2018-06-03T10:40:14.246Z,1005.84
2018-06-03T10:41:14.258Z,1005.81
2018-06-03T10:42:14.298Z,1005.78
2018-06-03T10:43:14.322Z,1005.77
2018-06-03T10:44:14.352Z,1005.78
2018-06-03T10:45:14.371Z,1005.81
2018-06-03T10:46:14.388Z,1005.86
2018-06-03T10:47:14.418Z,1005.88
2018-06-03T10:48:14.438Z,1005.93
2018-06-03T10:49:14.478Z,1005.91
2018-06-03T10:50:14.509Z,1005.90
2018-06-03T10:51:14.510Z,1005.90
2018-06-03T10:52:14.534Z,1005.86
2018-06-03T10:53:14.564Z,1005.84
2018-06-03T10:54:14.648Z,1005.87
2018-06-03T10:55:14.633Z,1005.86
2018-06-03T10:56:14.661Z,1005.86
2018-06-03T10:57:14.681Z,1005.87
2018-06-03T10:58:14.688Z,1005.86
2018-06-03T10:59:14.727Z,1005.86
2018-06-03T11:00:14.771Z,1005.86
2018-06-03T11:01:14.776Z,1005.87
2018-06-03T11:02:14.794Z,1005.85
2018-06-03T11:03:14.828Z,1005.77
2018-06-03T11:04:14.848Z,1005.75
2018-06-03T11:05:14.874Z,1005.75
2018-06-03T11:06:14.906Z,1005.80
2018-06-03T11:07:14.926Z,1005.78
2018-06-03T11:08:14.972Z,1005.77
2018-06-03T11:09:14.983Z,1005.76
2018-06-03T11:10:15.011Z,1005.78
2018-06-03T11:11:15.040Z,1005.75
2018-06-03T11:12:15.063Z,1005.77
2018-06-03T11:13:15.094Z,1005.75
2018-06-03T11:14:15.125Z,1005.77
2018-06-03T11:15:15.146Z,1005.72
2018-06-03T11:16:15.171Z,1005.77
2018-06-03T11:17:15.189Z,1005.75
2018-06-03T11:18:15.213Z,1005.75
2018-06-03T11:19:15.245Z,1005.75
2018-06-03T11:20:15.273Z,1005.74
2018-06-03T11:21:15.319Z,1005.72
2018-06-03T11:22:15.346Z,1005.66
2018-06-03T11:23:15.345Z,1005.64
2018-06-03T11:24:15.372Z,1005.62
2018-06-03T11:25:15.419Z,1005.62
2018-06-03T11:26:15.430Z,1005.60
2018-06-03T11:27:15.459Z,1005.62
2018-06-03T11:28:15.475Z,1005.60
2018-06-03T11:29:15.505Z,1005.57
2018-06-03T11:30:15.559Z,1005.56
2018-06-03T11:31:15.567Z,1005.55
2018-06-03T11:32:15.586Z,1005.53
2018-06-03T11:33:15.626Z,1005.51
2018-06-03T11:34:15.628Z,1005.51
2018-06-03T11:35:15.660Z,1005.52
2018-06-03T11:36:15.685Z,1005.54
2018-06-03T11:37:15.731Z,1005.55
2018-06-03T11:38:15.735Z,1005.57
2018-06-03T11:39:15.798Z,1005.55
2018-06-03T11:40:15.786Z,1005.47
2018-06-03T11:41:15.813Z,1005.45
2018-06-03T11:42:15.852Z,1005.45
2018-06-03T11:43:15.873Z,1005.40
2018-06-03T11:44:15.889Z,1005.44
2018-06-03T11:45:15.919Z,1005.44
2018-06-03T11:46:15.957Z,1005.41
2018-06-03T11:47:16.023Z,1005.44
2018-06-03T11:48:15.997Z,1005.39
2018-06-03T11:49:16.024Z,1005.41
2018-06-03T11:50:16.052Z,1005.43
2018-06-03T11:51:16.074Z,1005.39
2018-06-03T11:52:16.124Z,1005.41
2018-06-03T11:53:16.128Z,1005.46
2018-06-03T11:54:16.167Z,1005.42
2018-06-03T11:55:16.175Z,1005.38
2018-06-03T11:56:16.251Z,1005.39
2018-06-03T11:57:16.237Z,1005.41
2018-06-03T11:58:16.257Z,1005.42
2018-06-03T11:59:16.283Z,1005.40
2018-06-03T12:00:16.325Z,1005.42
2018-06-03T12:01:16.342Z,1005.42
2018-06-03T12:02:16.360Z,1005.38
2018-06-03T12:03:16.389Z,1005.39
2018-06-03T12:04:16.409Z,1005.33
2018-06-03T12:05:16.458Z,1005.32